Time;durP1;ratioP1;P1;durP2;ratioP2;P2;SDS_P1;SDS_P2;PMS_P1;PMS_P2;Temp;Humidity;BMP_temperature;BMP_pressure;BME280_temperature;BME280_humidity;BME280_pressure;Samples;Min_cycle;Max_cycle;Signal;HPM_P1;HPM_P2
2022/12/28 00:01:22;;;;;;;58.63;9.23;;;;;;;0.36;100.00;98784.66;5025820;28;20125;-56
2022/12/28 00:03:48;;;;;;;49.83;8.70;;;;;;;0.78;100.00;98783.25;5026326;28;20020;-54
2022/12/28 00:06:15;;;;;;;41.45;8.85;;;;;;;1.16;100.00;98785.88;5030324;28;20033;-54
2022/12/28 00:08:40;;;;;;;70.60;12.40;;;;;;;2.33;100.00;98778.19;5024929;28;20024;-52
2022/12/28 00:11:11;;;;;;;49.08;11.02;;;;;;;1.68;100.00;98768.59;5025818;28;20095;-53
2022/12/28 00:13:37;;;;;;;57.55;12.85;;;;;;;1.02;100.00;98765.63;5026558;28;20137;-55
2022/12/28 00:16:23;;;;;;;57.60;12.73;;;;;;;0.31;100.00;98760.50;5025812;28;20770;-53
2022/12/28 00:18:48;;;;;;;66.80;12.70;;;;;;;-0.22;100.00;98762.09;5027064;28;20388;-55
2022/12/28 00:21:14;;;;;;;44.45;10.85;;;;;;;-0.49;100.00;98755.59;5027694;28;20709;-54
2022/12/28 00:23:39;;;;;;;59.85;12.55;;;;;;;-0.75;100.00;98762.75;5028338;28;20067;-53
2022/12/28 00:26:06;;;;;;;36.63;9.32;;;;;;;-0.91;100.00;98755.91;5028261;28;20041;-54
2022/12/28 00:28:33;;;;;;;54.10;11.18;;;;;;;-1.03;100.00;98750.13;5028117;28;20028;-56
2022/12/28 00:30:58;;;;;;;55.55;10.85;;;;;;;-1.18;100.00;98749.38;5027633;28;20045;-55
2022/12/28 00:33:23;;;;;;;35.15;8.95;;;;;;;-1.26;100.00;98736.97;5029835;28;20537;-54
2022/12/28 00:36:00;;;;;;;53.03;10.98;;;;;;;-1.35;100.00;98737.34;5029045;28;20091;-56
2022/12/28 00:38:27;;;;;;;54.80;11.25;;;;;;;-1.39;100.00;98741.41;5030501;28;20580;-54
2022/12/28 00:40:53;;;;;;;39.40;10.02;;;;;;;-1.46;100.00;98740.16;5028788;28;20502;-54
2022/12/28 00:43:18;;;;;;;47.45;10.00;;;;;;;-1.45;100.00;98729.16;5028982;28;20021;-55
2022/12/28 00:45:47;;;;;;;45.47;10.15;;;;;;;-1.47;100.00;98730.78;5028936;28;20037;-55
2022/12/28 00:48:14;;;;;;;50.58;9.80;;;;;;;-1.52;100.00;98731.28;5029970;28;20028;-54
2022/12/28 00:50:40;;;;;;;37.22;8.20;;;;;;;-1.53;100.00;98727.84;5028811;28;20067;-54
2022/12/28 00:53:06;;;;;;;47.97;9.40;;;;;;;-1.53;100.00;98727.84;5030234;28;20036;-53
2022/12/28 00:55:32;;;;;;;44.72;10.25;;;;;;;-1.57;100.00;98738.69;5029026;28;20033;-54
2022/12/28 00:58:01;;;;;;;42.35;9.27;;;;;;;-1.60;100.00;98738.53;5028864;28;20032;-54
2022/12/28 01:00:27;;;;;;;41.05;10.15;;;;;;;-1.57;100.00;98738.69;5026594;28;20794;-55
2022/12/28 01:02:53;;;;;;;43.05;10.25;;;;;;;-1.54;100.00;98741.41;5028704;28;20021;-54
2022/12/28 01:05:19;;;;;;;52.05;10.60;;;;;;;-1.54;100.00;98741.41;5027756;28;20147;-56
2022/12/28 01:07:45;;;;;;;43.08;10.32;;;;;;;-1.58;100.00;98745.47;5028501;28;20026;-54
2022/12/28 01:10:11;;;;;;;49.95;9.60;;;;;;;-1.56;100.00;98740.41;5031526;28;20832;-54
2022/12/28 01:12:36;;;;;;;42.88;8.60;;;;;;;-1.50;100.00;98735.69;5031081;28;20025;-54
2022/12/28 01:15:08;;;;;;;40.35;8.52;;;;;;;-1.50;100.00;98748.44;5027949;28;20482;-57
2022/12/28 01:17:33;;;;;;;37.58;7.88;;;;;;;-1.57;100.00;98739.56;5028869;28;20080;-53
2022/12/28 01:19:59;;;;;;;40.67;7.88;;;;;;;-1.53;100.00;98735.50;5027126;28;20026;-53
2022/12/28 01:22:26;;;;;;;52.78;10.05;;;;;;;-1.51;100.00;98727.94;5029399;28;20601;-54
2022/12/28 01:24:51;;;;;;;38.10;9.20;;;;;;;-1.45;100.00;98739.38;5029155;28;20060;-53
2022/12/28 01:27:16;;;;;;;32.55;7.50;;;;;;;-1.47;100.00;98738.44;5028361;28;20067;-54
2022/12/28 01:29:42;;;;;;;39.38;8.00;;;;;;;-1.46;100.00;98737.63;5030064;28;20048;-55
2022/12/28 01:32:07;;;;;;;39.00;7.85;;;;;;;-1.42;100.00;98725.03;5027658;28;20515;-55
2022/12/28 01:34:32;;;;;;;52.45;8.00;;;;;;;-1.38;100.00;98729.53;5028824;28;20032;-54
2022/12/28 01:36:58;;;;;;;41.42;8.23;;;;;;;-1.36;100.00;98728.81;5027985;28;20037;-54
2022/12/28 01:39:23;;;;;;;34.22;7.85;;;;;;;-1.30;100.00;98718.03;5029796;28;20543;-56
2022/12/28 01:41:48;;;;;;;36.38;8.40;;;;;;;-1.31;100.00;98714.63;5028222;28;20088;-57
2022/12/28 01:44:14;;;;;;;33.45;8.30;;;;;;;-1.34;100.00;98701.69;5029068;28;20090;-55
2022/12/28 01:47:09;;;;;;;50.65;9.25;;;;;;;-1.32;100.00;98696.69;5027254;28;20590;-54
2022/12/28 01:49:37;;;;;;;40.08;7.75;;;;;;;-1.27;100.00;98691.84;5026554;28;20037;-55
2022/12/28 01:52:38;;;;;;;32.53;7.47;;;;;;;-1.19;100.00;98686.34;5025882;28;20679;-57
2022/12/28 01:55:06;;;;;;;40.10;8.00;;;;;;;-1.15;100.00;98684.81;5027101;28;20025;-55
2022/12/28 01:57:38;;;;;;;37.47;8.32;;;;;;;-1.15;100.00;98679.72;5029388;28;20025;-54
2022/12/28 02:00:07;;;;;;;42.60;8.45;;;;;;;-1.16;100.00;98677.09;5028477;28;20442;-54
2022/12/28 02:02:34;;;;;;;40.30;8.18;;;;;;;-1.16;100.00;98661.78;5026550;28;20129;-54
2022/12/28 02:04:59;;;;;;;42.40;8.85;;;;;;;-1.22;100.00;98658.09;5026655;28;20155;-55
2022/12/28 02:07:54;;;;;;;34.50;8.95;;;;;;;-1.18;100.00;98654.91;5029171;28;20203;-56
2022/12/28 02:10:23;;;;;;;38.55;8.50;;;;;;;-1.04;100.00;98642.00;5021978;28;20115;-55
2022/12/28 02:12:48;;;;;;;46.10;8.45;;;;;;;-0.93;100.00;98633.25;5029277;28;20554;-56
2022/12/28 02:15:13;;;;;;;41.38;8.57;;;;;;;-0.53;100.00;98631.00;5028123;28;20043;-55
2022/12/28 02:17:39;;;;;;;37.45;8.32;;;;;;;-0.32;100.00;98625.22;5028074;28;20025;-55
2022/12/28 02:20:05;;;;;;;51.97;10.00;;;;;;;-0.15;100.00;98623.53;5027410;28;20036;-55
2022/12/28 02:22:56;;;;;;;34.75;8.07;;;;;;;-0.12;100.00;98627.91;5027122;28;20048;-54
2022/12/28 02:25:28;;;;;;;43.88;8.45;;;;;;;-0.15;100.00;98626.94;5026586;28;20905;-55
2022/12/28 02:28:05;;;;;;;40.97;8.57;;;;;;;-0.05;100.00;98620.59;5027534;28;20694;-55
2022/12/28 02:30:36;;;;;;;39.30;8.48;;;;;;;0.04;100.00;98617.59;5027308;28;20044;-54
2022/12/28 02:33:10;;;;;;;43.13;9.73;;;;;;;0.17;100.00;98618.19;5028675;28;20044;-56
2022/12/28 02:35:54;;;;;;;40.72;9.27;;;;;;;0.29;100.00;98617.94;5030001;28;20609;-56
2022/12/28 02:38:38;;;;;;;42.88;9.35;;;;;;;0.33;100.00;98613.03;5031852;28;20071;-54
2022/12/28 02:41:08;;;;;;;37.92;9.27;;;;;;;0.38;100.00;98609.00;5029220;28;20049;-52
2022/12/28 02:43:34;;;;;;;44.13;9.85;;;;;;;0.21;100.00;98603.09;5026799;28;20125;-52
2022/12/28 02:52:37;;;;;;;46.40;9.57;;;;;;;0.44;100.00;98582.81;5028680;28;20168;-53
2022/12/28 02:58:46;;;;;;;58.03;12.48;;;;;;;0.33;100.00;98571.22;5026375;28;20072;-55
2022/12/28 03:01:45;;;;;;;39.95;10.63;;;;;;;0.38;100.00;98565.47;5026341;28;20051;-55
2022/12/28 03:04:32;;;;;;;29.23;4.30;;;;;;;0.57;100.00;98556.13;5026235;28;20026;-54
2022/12/28 03:10:02;;;;;;;40.85;8.95;;;;;;;0.36;100.00;98551.75;5028045;28;20259;-53
2022/12/28 03:12:34;;;;;;;45.22;9.82;;;;;;;0.21;100.00;98556.16;5026809;28;20486;-55
2022/12/28 03:15:10;;;;;;;39.13;9.25;;;;;;;0.27;100.00;98559.00;5028869;28;20462;-55
2022/12/28 03:31:31;;;;;;;42.70;9.73;;;;;;;0.39;100.00;98530.53;5034505;28;20044;-54
2022/12/28 03:34:08;;;;;;;48.30;9.48;;;;;;;0.37;100.00;98525.34;5027475;28;20033;-53
2022/12/28 03:37:24;;;;;;;40.80;10.40;;;;;;;0.38;100.00;98521.97;5028444;28;20508;-54
2022/12/28 03:39:55;;;;;;;60.85;10.63;;;;;;;0.29;100.00;98520.69;5021757;28;20183;-55
2022/12/28 03:45:22;;;;;;;40.65;9.70;;;;;;;0.32;100.00;98508.91;5029925;28;20143;-55
2022/12/28 03:47:50;;;;;;;43.20;9.73;;;;;;;0.27;100.00;98507.81;5030939;28;20037;-53
2022/12/28 03:50:18;;;;;;;39.70;9.63;;;;;;;0.31;100.00;98503.72;5030645;28;20084;-54
2022/12/28 03:52:44;;;;;;;42.45;9.88;;;;;;;0.30;100.00;98504.53;5031117;28;20025;-54
2022/12/28 03:55:14;;;;;;;43.22;9.40;;;;;;;0.41;100.00;98502.47;5030577;28;20032;-55
2022/12/28 03:57:40;;;;;;;33.85;6.93;;;;;;;0.54;100.00;98499.66;5032071;28;20025;-53
2022/12/28 04:00:08;;;;;;;47.22;9.40;;;;;;;0.62;100.00;98493.19;5031165;28;20036;-54
2022/12/28 04:02:33;;;;;;;38.92;9.13;;;;;;;0.74;100.00;98497.97;5031587;28;20924;-55
2022/12/28 04:04:59;;;;;;;37.85;8.95;;;;;;;0.78;100.00;98493.88;5030113;28;20578;-54
2022/12/28 04:07:24;;;;;;;50.53;10.05;;;;;;;0.86;100.00;98497.63;5028703;28;20412;-54
2022/12/28 04:09:50;;;;;;;54.90;10.63;;;;;;;0.98;100.00;98494.72;5028532;28;20061;-54
2022/12/28 04:12:15;;;;;;;53.88;11.27;;;;;;;1.07;100.00;98498.50;5030857;28;20044;-54
2022/12/28 04:14:40;;;;;;;47.17;10.43;;;;;;;1.12;100.00;98499.56;5032850;28;20116;-55
2022/12/28 04:17:06;;;;;;;45.45;9.38;;;;;;;0.96;100.00;98496.34;5027618;28;20127;-53
2022/12/28 04:19:31;;;;;;;32.35;8.93;;;;;;;1.01;100.00;98504.22;5030168;28;20033;-53
2022/12/28 04:21:56;;;;;;;34.25;8.50;;;;;;;1.09;100.00;98494.31;5030299;28;20141;-54
2022/12/28 04:24:22;;;;;;;47.70;9.50;;;;;;;1.01;100.00;98487.16;5029655;28;20120;-53
2022/12/28 04:26:47;;;;;;;42.25;9.43;;;;;;;1.08;100.00;98475.47;5028340;28;20102;-53
2022/12/28 04:29:12;;;;;;;44.40;9.95;;;;;;;1.02;100.00;98465.88;5029653;28;20034;-53
2022/12/28 04:31:38;;;;;;;40.15;9.55;;;;;;;1.04;100.00;98463.38;5028346;28;20038;-55
2022/12/28 04:34:05;;;;;;;44.88;8.60;;;;;;;0.97;100.00;98469.91;5031662;28;20087;-56
2022/12/28 04:36:30;;;;;;;51.33;11.48;;;;;;;1.04;100.00;98458.25;5029791;28;20128;-55
2022/12/28 04:38:57;;;;;;;39.00;9.70;;;;;;;1.03;100.00;98461.59;5029788;28;20018;-53
2022/12/28 04:41:23;;;;;;;33.97;9.70;;;;;;;0.93;100.00;98451.78;5028802;28;20376;-54
2022/12/28 04:43:48;;;;;;;36.45;9.05;;;;;;;0.97;100.00;98451.13;5028979;28;20135;-53
2022/12/28 04:46:15;;;;;;;43.97;9.07;;;;;;;1.07;100.00;98450.69;5029815;28;20044;-54
2022/12/28 04:48:41;;;;;;;55.45;10.43;;;;;;;1.14;100.00;98452.69;5030290;28;20026;-52
2022/12/28 04:51:15;;;;;;;34.45;9.80;;;;;;;1.26;100.00;98459.16;5029478;28;20128;-55
2022/12/28 04:53:41;;;;;;;48.08;10.55;;;;;;;1.31;100.00;98465.34;5029868;28;20033;-55
2022/12/28 04:56:08;;;;;;;43.03;9.50;;;;;;;1.31;100.00;98465.34;5028679;28;20037;-54
2022/12/28 04:58:34;;;;;;;41.20;9.23;;;;;;;1.32;100.00;98461.97;5031157;28;20674;-56
2022/12/28 05:01:08;;;;;;;48.83;10.75;;;;;;;1.33;100.00;98460.28;5027391;28;20092;-56
2022/12/28 05:03:35;;;;;;;44.25;9.93;;;;;;;1.36;100.00;98462.94;5028580;28;20840;-53
2022/12/28 05:06:03;;;;;;;41.90;10.52;;;;;;;1.35;100.00;98456.97;5027885;28;20132;-54
2022/12/28 05:08:31;;;;;;;50.03;12.05;;;;;;;1.33;100.00;98447.47;5028977;28;20053;-55
2022/12/28 05:11:04;;;;;;;60.05;12.70;;;;;;;1.34;100.00;98450.06;5030056;28;20040;-55
2022/12/28 05:13:29;;;;;;;46.85;10.80;;;;;;;1.48;100.00;98450.63;5028136;28;20142;-54
2022/12/28 05:16:03;;;;;;;61.85;11.63;;;;;;;1.49;100.00;98443.81;5026398;28;20555;-52
2022/12/28 05:18:28;;;;;;;43.63;10.35;;;;;;;1.57;100.00;98450.16;5028021;28;20515;-53
2022/12/28 05:21:05;;;;;;;46.45;10.27;;;;;;;1.64;100.00;98449.56;5028137;28;20048;-54
2022/12/28 05:23:32;;;;;;;45.80;10.80;;;;;;;1.73;100.00;98441.38;5028108;28;20016;-56
2022/12/28 05:25:58;;;;;;;52.17;11.32;;;;;;;1.78;100.00;98442.41;5029470;28;20037;-56
2022/12/28 05:28:24;;;;;;;45.72;10.43;;;;;;;1.88;100.00;98447.91;5028851;28;20036;-58
2022/12/28 05:30:50;;;;;;;45.25;10.25;;;;;;;1.89;100.00;98440.25;5027954;28;20038;-56
2022/12/28 05:33:16;;;;;;;44.10;9.27;;;;;;;1.62;100.00;98434.94;5028978;28;20079;-57
2022/12/28 05:35:41;;;;;;;41.08;9.85;;;;;;;1.66;100.00;98431.66;5029452;28;20098;-55
2022/12/28 05:38:06;;;;;;;45.65;10.38;;;;;;;1.61;100.00;98428.94;5028555;28;20041;-56
2022/12/28 05:40:32;;;;;;;45.60;9.18;;;;;;;1.84;100.00;98430.63;5029073;28;20036;-56
2022/12/28 05:42:58;;;;;;;37.50;8.30;;;;;;;1.75;100.00;98428.59;5026646;28;20021;-54
2022/12/28 05:45:23;;;;;;;42.75;9.63;;;;;;;1.75;100.00;98424.31;5027871;28;20041;-55
2022/12/28 05:47:49;;;;;;;42.35;10.20;;;;;;;1.89;100.00;98429.16;5030500;28;20028;-55
2022/12/28 05:50:14;;;;;;;58.60;11.02;;;;;;;2.00;100.00;98421.84;5029724;28;20025;-56
2022/12/28 05:52:39;;;;;;;48.83;9.40;;;;;;;2.13;100.00;98423.19;5030480;28;20064;-53
2022/12/28 05:55:05;;;;;;;48.13;10.43;;;;;;;2.27;100.00;98419.41;5030367;28;20118;-56
2022/12/28 05:57:31;;;;;;;49.35;10.15;;;;;;;2.43;100.00;98420.00;5027863;28;20021;-54
2022/12/28 05:59:56;;;;;;;50.25;10.20;;;;;;;2.49;100.00;98419.34;5029617;28;20028;-54
2022/12/28 06:02:24;;;;;;;52.65;11.02;;;;;;;2.51;100.00;98415.13;5027429;28;20183;-55
2022/12/28 06:04:50;;;;;;;28.35;7.15;;;;;;;2.50;100.00;98416.84;5028310;28;20029;-55
2022/12/28 06:07:15;;;;;;;42.78;10.35;;;;;;;2.66;100.00;98410.53;5029188;28;20060;-55
2022/12/28 06:09:40;;;;;;;47.03;10.73;;;;;;;2.71;100.00;98415.84;5028512;28;20037;-54
2022/12/28 06:12:06;;;;;;;45.05;10.02;;;;;;;2.86;100.00;98412.94;5009488;28;20043;-54
2022/12/28 06:14:31;;;;;;;44.42;10.65;;;;;;;2.92;100.00;98413.13;5027062;28;20121;-55
2022/12/28 06:16:57;;;;;;;55.67;11.27;;;;;;;2.95;100.00;98420.94;5028305;28;20041;-55
2022/12/28 06:19:22;;;;;;;51.08;11.07;;;;;;;3.01;100.00;98417.72;5028739;28;20078;-54
2022/12/28 06:21:47;;;;;;;37.65;8.93;;;;;;;2.98;100.00;98412.47;5028306;28;20801;-55
2022/12/28 06:24:13;;;;;;;39.80;10.00;;;;;;;3.03;100.00;98410.94;5028919;28;20057;-55
2022/12/28 06:26:39;;;;;;;40.55;8.88;;;;;;;3.13;100.00;98406.97;5027944;28;20037;-55
2022/12/28 06:29:06;;;;;;;55.08;11.55;;;;;;;3.16;100.00;98409.66;5029099;28;20439;-54
2022/12/28 06:31:34;;;;;;;31.35;6.05;;;;;;;3.12;100.00;98406.09;5028378;28;20040;-54
2022/12/28 06:34:00;;;;;;;49.10;10.93;;;;;;;3.25;100.00;98399.66;5026503;28;20021;-54
2022/12/28 06:36:27;;;;;;;40.92;10.05;;;;;;;3.30;100.00;98407.50;5028141;28;20047;-54
2022/12/28 06:38:55;;;;;;;46.42;9.90;;;;;;;3.32;100.00;98403.31;5027993;28;20078;-57
2022/12/28 06:41:21;;;;;;;37.95;10.23;;;;;;;3.35;100.00;98398.25;5027932;28;20037;-54
2022/12/28 06:43:48;;;;;;;47.33;10.95;;;;;;;3.15;100.00;98407.03;5029188;28;20104;-54
2022/12/28 06:46:15;;;;;;;55.40;11.60;;;;;;;3.23;100.00;98403.00;5027395;28;20068;-54
2022/12/28 06:48:41;;;;;;;48.03;11.93;;;;;;;3.25;100.00;98403.91;5028743;28;20399;-54
2022/12/28 06:51:10;;;;;;;41.78;9.95;;;;;;;3.24;100.00;98404.75;5027010;28;20628;-57
2022/12/28 06:53:37;;;;;;;50.83;10.90;;;;;;;3.21;100.00;98404.66;5035946;28;20029;-54
2022/12/28 06:56:05;;;;;;;49.22;9.68;;;;;;;3.33;100.00;98405.03;5027479;28;20125;-54
2022/12/28 06:58:31;;;;;;;50.42;11.05;;;;;;;3.42;100.00;98404.47;5027529;28;20029;-55
2022/12/28 07:01:05;;;;;;;46.47;10.55;;;;;;;3.29;100.00;98395.47;5026438;28;20120;-54
2022/12/28 07:03:31;;;;;;;47.72;11.02;;;;;;;3.36;100.00;98394.88;5028527;28;20021;-54
2022/12/28 07:06:00;;;;;;;44.38;11.02;;;;;;;3.44;100.00;98382.25;5027311;28;20064;-56
2022/12/28 07:08:25;;;;;;;43.50;9.57;;;;;;;3.54;100.00;98379.94;5027636;28;20072;-57
2022/12/28 07:10:51;;;;;;;41.65;9.20;;;;;;;3.67;100.00;98379.50;5026991;28;20041;-57
2022/12/28 07:13:16;;;;;;;44.97;9.73;;;;;;;3.77;100.00;98370.38;5029170;28;20033;-55
2022/12/28 07:15:41;;;;;;;33.63;8.32;;;;;;;3.98;100.00;98375.28;5025796;28;20762;-55
2022/12/28 07:18:07;;;;;;;42.60;11.07;;;;;;;4.14;100.00;98365.44;5028740;28;20669;-53
2022/12/28 07:20:32;;;;;;;44.20;10.73;;;;;;;4.09;100.00;98361.84;5030174;28;20037;-53
2022/12/28 07:22:58;;;;;;;40.08;10.60;;;;;;;4.21;100.00;98354.47;5032688;28;20650;-53
2022/12/28 07:25:23;;;;;;;43.15;12.10;;;;;;;4.34;100.00;98342.81;5028476;28;20048;-55
2022/12/28 07:27:49;;;;;;;35.70;9.32;;;;;;;4.37;100.00;98348.03;5030751;28;20520;-53
2022/12/28 07:30:14;;;;;;;36.15;9.23;;;;;;;4.48;100.00;98347.44;5030058;28;20509;-53
2022/12/28 07:32:40;;;;;;;41.05;10.15;;;;;;;4.61;100.00;98343.50;5031710;28;20112;-54
2022/12/28 07:35:06;;;;;;;34.95;7.72;;;;;;;4.85;100.00;98339.81;5032292;28;20594;-55
2022/12/28 07:37:31;;;;;;;51.00;10.85;;;;;;;4.85;100.00;98339.81;5030673;28;20030;-53
2022/12/28 07:39:57;;;;;;;48.67;10.43;;;;;;;5.14;100.00;98337.97;5030792;28;20025;-55
2022/12/28 07:42:22;;;;;;;39.75;9.20;;;;;;;5.07;100.00;98334.38;5028854;28;20029;-53
2022/12/28 07:44:47;;;;;;;39.28;10.77;;;;;;;5.52;100.00;98331.94;5032819;28;20029;-53
2022/12/28 07:47:13;;;;;;;40.35;9.10;;;;;;;5.88;100.00;98337.00;5030713;28;20067;-58
2022/12/28 07:49:39;;;;;;;40.38;7.95;;;;;;;5.88;100.00;98332.72;5029837;28;20029;-55
2022/12/28 07:52:05;;;;;;;42.10;10.43;;;;;;;5.85;100.00;98330.06;5030556;28;20052;-54
2022/12/28 07:54:30;;;;;;;45.97;10.77;;;;;;;5.94;100.00;98332.84;5028755;28;20029;-53
2022/12/28 07:56:55;;;;;;;38.13;10.32;;;;;;;6.47;100.00;98340.78;5033831;28;20986;-53
2022/12/28 07:59:21;;;;;;;44.28;10.93;;;;;;;6.54;100.00;98329.72;5031934;28;20431;-53
2022/12/28 08:01:49;;;;;;;49.58;11.02;;;;;;;6.75;100.00;98328.34;5030870;28;20119;-53
2022/12/28 08:04:15;;;;;;;29.60;7.50;;;;;;;7.07;100.00;98324.56;5031814;28;20029;-54
2022/12/28 08:06:42;;;;;;;42.30;9.20;;;;;;;6.81;100.00;98323.31;5027295;28;20153;-54
2022/12/28 08:09:10;;;;;;;37.58;8.95;;;;;;;6.61;100.00;98321.22;5030655;28;20099;-53
2022/12/28 08:11:38;;;;;;;37.78;9.35;;;;;;;6.76;100.00;98325.78;5030426;28;20613;-53
2022/12/28 08:14:05;;;;;;;41.92;10.43;;;;;;;6.80;100.00;98331.03;5028691;28;20702;-57
2022/12/28 08:16:33;;;;;;;37.78;9.93;;;;;;;6.56;100.00;98321.97;5028452;28;20474;-56
2022/12/28 08:18:59;;;;;;;43.70;10.55;;;;;;;7.07;100.00;98327.16;5029837;28;20441;-55
2022/12/28 08:21:31;;;;;;;39.65;11.50;;;;;;;6.94;100.00;98319.19;5029806;28;20510;-56
2022/12/28 08:23:57;;;;;;;47.95;9.88;;;;;;;6.74;100.00;98322.31;5030056;28;20198;-55
2022/12/28 08:26:24;;;;;;;25.15;4.65;;;;;;;6.35;100.00;98329.38;5030548;28;20102;-55
2022/12/28 08:28:53;;;;;;;41.20;11.05;;;;;;;6.62;100.00;98325.56;5030287;28;20309;-54
2022/12/28 08:31:25;;;;;;;37.47;10.15;;;;;;;7.25;100.00;98314.53;5028831;28;20153;-55
2022/12/28 08:33:52;;;;;;;34.20;10.57;;;;;;;7.13;100.00;98317.78;5029076;28;20029;-55
2022/12/28 08:36:18;;;;;;;34.38;9.43;;;;;;;7.56;100.00;98319.28;5029142;28;20045;-56
2022/12/28 08:38:44;;;;;;;34.30;10.15;;;;;;;7.72;100.00;98309.13;5031339;28;20029;-55
2022/12/28 08:41:18;;;;;;;39.22;9.90;;;;;;;7.99;100.00;98311.22;5030294;28;20044;-54
2022/12/28 08:43:44;;;;;;;34.13;9.45;;;;;;;8.11;100.00;98319.97;5031405;28;20109;-56
2022/12/28 08:46:11;;;;;;;43.63;9.75;;;;;;;8.11;100.00;98323.44;5029603;28;20041;-56
2022/12/28 08:48:37;;;;;;;39.42;9.40;;;;;;;7.72;100.00;98322.06;5031024;28;20787;-56
2022/12/28 08:51:09;;;;;;;34.65;8.57;;;;;;;8.28;100.00;98307.22;5031462;28;20064;-55
2022/12/28 08:53:36;;;;;;;37.70;9.88;;;;;;;8.07;100.00;98311.28;5029888;28;20450;-56
2022/12/28 08:56:21;;;;;;;34.20;9.48;;;;;;;8.40;100.00;98298.69;5031560;28;20207;-54
2022/12/28 08:58:48;;;;;;;27.88;7.75;;;;;;;8.16;100.00;98297.56;5030430;28;20175;-54
2022/12/28 09:01:20;;;;;;;30.38;8.60;;;;;;;8.15;100.00;98298.41;5029434;28;20240;-55
2022/12/28 09:03:47;;;;;;;35.35;8.55;;;;;;;8.41;100.00;98301.31;5030350;28;20021;-55
2022/12/28 09:06:16;;;;;;;32.53;8.57;;;;;;;8.60;100.00;98296.31;5029306;28;20072;-54
2022/12/28 09:08:42;;;;;;;30.10;7.95;;;;;;;8.90;100.00;98296.59;5030409;28;20036;-54
2022/12/28 09:11:11;;;;;;;20.80;5.28;;;;;;;8.40;100.00;98303.88;5029004;28;20037;-55
2022/12/28 09:13:38;;;;;;;29.83;8.50;;;;;;;8.30;100.00;98300.31;5030120;28;20738;-54
2022/12/28 09:16:09;;;;;;;32.13;8.73;;;;;;;8.07;100.00;98303.53;5029774;28;20829;-55
2022/12/28 09:18:36;;;;;;;32.05;7.80;;;;;;;8.59;100.00;98305.84;5029736;28;20052;-54
2022/12/28 09:21:13;;;;;;;28.25;7.93;;;;;;;8.77;100.00;98295.63;5027073;28;20092;-57
2022/12/28 09:23:39;;;;;;;32.33;6.15;;;;;;;8.52;100.00;98298.81;5029497;28;20521;-54
2022/12/28 09:26:10;;;;;;;30.10;8.90;;;;;;;9.03;100.00;98282.00;5026824;28;20045;-56
2022/12/28 09:28:36;;;;;;;31.85;7.85;;;;;;;9.18;100.00;98279.53;5028728;28;20037;-56
2022/12/28 09:31:07;;;;;;;28.63;8.32;;;;;;;9.68;100.00;98277.19;5027661;28;20037;-56
2022/12/28 09:36:18;;;;;;;29.88;7.75;;;;;;;9.74;100.00;98287.63;5027013;28;20118;-56
2022/12/28 09:38:45;;;;;;;36.55;8.10;;;;;;;9.73;100.00;98280.69;5030171;28;20446;-55
2022/12/28 09:41:14;;;;;;;25.88;6.53;;;;;;;10.04;100.00;98287.75;5026941;28;20048;-54
2022/12/28 09:43:42;;;;;;;32.42;7.95;;;;;;;9.79;100.00;98277.25;5027089;28;20682;-54
2022/12/28 09:46:09;;;;;;;24.85;6.60;;;;;;;9.86;100.00;98268.63;5028008;28;20083;-54
2022/12/28 09:48:35;;;;;;;28.98;6.60;;;;;;;9.17;100.00;98275.16;5028630;28;20033;-56
2022/12/28 09:51:00;;;;;;;29.15;8.00;;;;;;;9.14;100.00;98271.69;5028526;28;20041;-55
2022/12/28 09:53:31;;;;;;;27.20;7.80;;;;;;;9.29;100.00;98276.13;5028345;28;20033;-54
2022/12/28 09:56:23;;;;;;;29.85;6.47;;;;;;;9.48;100.00;98262.41;5026534;28;20066;-56
2022/12/28 09:58:50;;;;;;;32.60;6.57;;;;;;;9.53;100.00;98274.53;5026906;28;20483;-54
2022/12/28 10:01:17;;;;;;;23.25;4.88;;;;;;;9.19;100.00;98276.06;5027925;28;20080;-55
2022/12/28 10:03:44;;;;;;;26.98;5.35;;;;;;;9.73;100.00;98269.44;5029396;28;20021;-55
2022/12/28 10:06:13;;;;;;;23.83;5.55;;;;;;;9.66;100.00;98276.34;5027002;28;20111;-57
2022/12/28 10:08:43;;;;;;;24.50;5.00;;;;;;;9.59;100.00;98266.78;5029264;28;20031;-56
2022/12/28 10:11:16;;;;;;;30.80;6.82;;;;;;;9.94;100.00;98265.19;5027537;28;20087;-54
2022/12/28 10:13:41;;;;;;;24.80;4.32;;;;;;;9.33;100.00;98262.31;5028544;28;20359;-56
2022/12/28 10:16:16;;;;;;;22.70;4.78;;;;;;;9.11;100.00;98263.03;5027567;28;20451;-54
2022/12/28 10:18:41;;;;;;;29.58;4.72;;;;;;;9.13;100.00;98249.19;5028432;28;20066;-57
2022/12/28 10:21:07;;;;;;;25.90;5.22;;;;;;;9.50;100.00;98250.28;5028749;28;20038;-55
2022/12/28 10:23:34;;;;;;;23.08;5.15;;;;;;;9.30;100.00;98252.78;5028464;28;20437;-56
2022/12/28 10:26:01;;;;;;;23.50;5.50;;;;;;;9.36;100.00;98246.75;5027422;28;20147;-54
2022/12/28 10:28:36;;;;;;;25.98;5.57;;;;;;;9.42;100.00;98249.38;5029234;28;20064;-55
2022/12/28 10:31:06;;;;;;;21.40;4.68;;;;;;;9.66;100.00;98239.09;5027121;28;20041;-56
2022/12/28 10:33:31;;;;;;;28.42;5.72;;;;;;;9.61;100.00;98231.28;5027655;28;20038;-54
2022/12/28 10:35:58;;;;;;;25.65;5.57;;;;;;;9.37;100.00;98232.91;5026929;28;20049;-53
2022/12/28 10:38:26;;;;;;;32.63;6.15;;;;;;;9.54;100.00;98234.72;5029594;28;20029;-56
2022/12/28 10:40:59;;;;;;;27.50;5.47;;;;;;;9.73;100.00;98231.31;5028912;28;20114;-55
2022/12/28 10:43:31;;;;;;;28.75;5.95;;;;;;;9.38;100.00;98230.31;5029433;28;20053;-54
2022/12/28 10:45:58;;;;;;;26.80;5.32;;;;;;;9.60;100.00;98217.44;5027616;28;20044;-56
2022/12/28 10:48:37;;;;;;;29.90;5.22;;;;;;;9.82;100.00;98214.03;5029757;28;20025;-56
2022/12/28 10:51:17;;;;;;;23.98;4.82;;;;;;;9.42;100.00;98217.38;5028118;28;20041;-55
2022/12/28 10:53:48;;;;;;;22.20;4.50;;;;;;;9.50;100.00;98220.84;5031708;28;20029;-54
2022/12/28 10:56:13;;;;;;;25.15;5.15;;;;;;;9.33;100.00;98194.81;5029886;28;20045;-55
2022/12/28 10:58:40;;;;;;;26.98;5.43;;;;;;;9.33;100.00;98203.47;5033795;28;20029;-56
2022/12/28 11:01:14;;;;;;;16.00;3.97;;;;;;;9.79;100.00;98194.13;5031558;28;20049;-55
2022/12/28 11:04:02;;;;;;;45.88;7.53;;;;;;;10.90;100.00;98187.31;5030095;28;20027;-56
2022/12/28 11:06:31;;;;;;;22.17;5.07;;;;;;;12.28;100.00;98181.56;5028702;28;20049;-54
2022/12/28 11:09:02;;;;;;;19.33;4.70;;;;;;;12.62;100.00;98192.59;5031053;28;20033;-57
2022/12/28 11:11:27;;;;;;;21.08;4.90;;;;;;;12.97;100.00;98182.72;5030790;28;20152;-54
2022/12/28 11:14:01;;;;;;;21.13;4.78;;;;;;;12.93;100.00;98182.75;5030905;28;20025;-54
2022/12/28 11:16:28;;;;;;;24.38;4.50;;;;;;;12.91;100.00;98168.84;5031974;28;20033;-55
2022/12/28 11:18:54;;;;;;;29.35;5.18;;;;;;;12.05;100.00;98175.63;5016442;28;20028;-54
2022/12/28 11:21:21;;;;;;;21.33;3.83;;;;;;;12.36;100.00;98170.19;5031024;28;20041;-57
2022/12/28 11:23:50;;;;;;;25.77;4.95;;;;;;;12.49;100.00;98168.34;5031068;28;20036;-57
2022/12/28 11:26:17;;;;;;;20.40;4.35;;;;;;;11.78;100.00;98161.84;5029658;28;20128;-54
2022/12/28 11:28:46;;;;;;;29.00;5.25;;;;;;;11.52;100.00;98156.75;5026981;28;20025;-54
2022/12/28 11:31:36;;;;;;;25.00;4.78;;;;;;;14.22;100.00;98159.41;5031174;28;20099;-56
2022/12/28 11:34:05;;;;;;;25.38;4.70;;;;;;;13.06;100.00;98158.25;5032447;28;20021;-54
2022/12/28 11:36:37;;;;;;;22.05;4.85;;;;;;;11.71;100.00;98158.41;5030187;28;20800;-55
2022/12/28 11:39:24;;;;;;;24.65;4.75;;;;;;;12.18;100.00;98154.69;5032124;28;20204;-54
2022/12/28 11:41:51;;;;;;;23.00;4.15;;;;;;;13.23;100.00;98146.75;5028013;28;20569;-53
2022/12/28 11:44:39;;;;;;;22.85;4.35;;;;;;;11.71;100.00;98136.69;5024070;28;20034;-54
2022/12/28 11:47:14;;;;;;;27.83;5.28;;;;;;;11.75;100.00;98132.31;5024640;28;20046;-56
2022/12/28 11:49:39;;;;;;;20.63;4.18;;;;;;;13.35;100.00;98138.75;5025651;28;20060;-56
2022/12/28 11:52:14;;;;;;;19.75;3.72;;;;;;;12.74;100.00;98126.34;5027820;28;20648;-54
2022/12/28 11:54:54;;;;;;;28.63;4.47;;;;;;;11.82;100.00;98129.69;5029156;28;20063;-56
2022/12/28 11:57:53;;;;;;;19.90;3.88;;;;;;;13.23;100.00;98134.56;5026064;28;20038;-55
2022/12/28 12:00:18;;;;;;;25.92;4.13;;;;;;;11.62;100.00;98121.13;5008114;28;20366;-54